Marina, California
Current Conditions -  °F | °C
As of 11:54 PM on Sunday 23 Nov 2014 (Local Time) from KMRY Reporting Station
Clear Clear  
Wind Chill: 44°   Ceiling: Unl
Heat Index: 46°   Visibility: 10mi
Dew Point: 41°   Wind: 5mph
Humidity: 83%   Direction: 110°ESE
Pressure: 30.31"   Gusts: NA
Location:  36.68°N, 121.8°W
Report Text: KMRY 240754Z AUTO 11004KT 10SM CLR 08/05 A3031 RMK AO2 SLP276 T00780050 402060078
Loading
Personal Weather Stations






























Interactive Weather Map New forecast layout! Learn more

10-Day Weather Forecast

Advertisements
Track Severe Weather on mobile